sensor_id;sensor_type;location;lat;lon;timestamp;pressure;altitude;pressure_sealevel;temperature
25514;BMP180;48128;54.242;10.280;2024-03-02T00:00:11;100081.00;;;7.40
25514;BMP180;48128;54.242;10.280;2024-03-02T00:02:41;100079.00;;;7.40
25514;BMP180;48128;54.242;10.280;2024-03-02T00:05:11;100081.00;;;7.30
25514;BMP180;48128;54.242;10.280;2024-03-02T00:08:04;100079.00;;;7.30
25514;BMP180;48128;54.242;10.280;2024-03-02T00:10:38;100079.00;;;7.30
25514;BMP180;48128;54.242;10.280;2024-03-02T00:13:10;100078.00;;;7.30
25514;BMP180;48128;54.242;10.280;2024-03-02T00:15:55;100067.00;;;7.30
25514;BMP180;48128;54.242;10.280;2024-03-02T00:18:27;100067.00;;;7.30
25514;BMP180;48128;54.242;10.280;2024-03-02T00:20:57;100062.00;;;7.30
25514;BMP180;48128;54.242;10.280;2024-03-02T00:23:27;100066.00;;;7.30
25514;BMP180;48128;54.242;10.280;2024-03-02T00:25:56;100064.00;;;7.30
25514;BMP180;48128;54.242;10.280;2024-03-02T00:28:28;100050.00;;;7.30
25514;BMP180;48128;54.242;10.280;2024-03-02T00:33:27;100035.00;;;7.30
25514;BMP180;48128;54.242;10.280;2024-03-02T00:35:55;100035.00;;;7.30
25514;BMP180;48128;54.242;10.280;2024-03-02T00:38:22;100049.00;;;7.30
25514;BMP180;48128;54.242;10.280;2024-03-02T00:40:49;100041.00;;;7.30
25514;BMP180;48128;54.242;10.280;2024-03-02T00:43:38;100038.00;;;7.30
25514;BMP180;48128;54.242;10.280;2024-03-02T00:46:17;100046.00;;;7.20
25514;BMP180;48128;54.242;10.280;2024-03-02T00:51:15;100043.00;;;7.20
25514;BMP180;48128;54.242;10.280;2024-03-02T00:53:42;100041.00;;;7.20
25514;BMP180;48128;54.242;10.280;2024-03-02T00:56:11;100034.00;;;7.20
25514;BMP180;48128;54.242;10.280;2024-03-02T00:58:39;100019.00;;;7.20
25514;BMP180;48128;54.242;10.280;2024-03-02T01:01:06;100024.00;;;7.20
25514;BMP180;48128;54.242;10.280;2024-03-02T01:03:34;100018.00;;;7.20
25514;BMP180;48128;54.242;10.280;2024-03-02T01:06:01;100016.00;;;7.20
25514;BMP180;48128;54.242;10.280;2024-03-02T01:08:28;100023.00;;;7.20
25514;BMP180;48128;54.242;10.280;2024-03-02T01:10:55;100013.00;;;7.10
25514;BMP180;48128;54.242;10.280;2024-03-02T01:13:23;100024.00;;;7.10
25514;BMP180;48128;54.242;10.280;2024-03-02T01:15:50;100003.00;;;7.10
25514;BMP180;48128;54.242;10.280;2024-03-02T01:18:17;100013.00;;;7.20
25514;BMP180;48128;54.242;10.280;2024-03-02T01:20:44;100011.00;;;7.10
25514;BMP180;48128;54.242;10.280;2024-03-02T01:23:11;100005.00;;;7.10
25514;BMP180;48128;54.242;10.280;2024-03-02T01:25:39;100008.00;;;7.10
25514;BMP180;48128;54.242;10.280;2024-03-02T01:28:06;100009.00;;;7.10
25514;BMP180;48128;54.242;10.280;2024-03-02T01:30:33;100012.00;;;7.10
25514;BMP180;48128;54.242;10.280;2024-03-02T01:33:02;100003.00;;;7.10
25514;BMP180;48128;54.242;10.280;2024-03-02T01:35:29;100009.00;;;7.10
25514;BMP180;48128;54.242;10.280;2024-03-02T01:37:56;99995.00;;;7.10
25514;BMP180;48128;54.242;10.280;2024-03-02T01:40:23;99996.00;;;7.10
25514;BMP180;48128;54.242;10.280;2024-03-02T01:42:53;99993.00;;;7.10
25514;BMP180;48128;54.242;10.280;2024-03-02T01:45:21;100005.00;;;7.00
25514;BMP180;48128;54.242;10.280;2024-03-02T01:47:48;100003.00;;;7.10
25514;BMP180;48128;54.242;10.280;2024-03-02T01:50:15;100002.00;;;7.10
25514;BMP180;48128;54.242;10.280;2024-03-02T01:52:43;100001.00;;;7.10
25514;BMP180;48128;54.242;10.280;2024-03-02T01:55:11;100010.00;;;7.10
25514;BMP180;48128;54.242;10.280;2024-03-02T01:57:38;100009.00;;;7.10
25514;BMP180;48128;54.242;10.280;2024-03-02T02:00:05;100002.00;;;7.10
25514;BMP180;48128;54.242;10.280;2024-03-02T02:02:33;100008.00;;;7.10
25514;BMP180;48128;54.242;10.280;2024-03-02T02:04:59;100007.00;;;7.00
25514;BMP180;48128;54.242;10.280;2024-03-02T02:07:26;100003.00;;;7.00
25514;BMP180;48128;54.242;10.280;2024-03-02T02:09:53;100012.00;;;7.00
25514;BMP180;48128;54.242;10.280;2024-03-02T02:12:20;100002.00;;;7.00
25514;BMP180;48128;54.242;10.280;2024-03-02T02:14:48;99996.00;;;7.00
25514;BMP180;48128;54.242;10.280;2024-03-02T02:17:18;100003.00;;;7.00
25514;BMP180;48128;54.242;10.280;2024-03-02T02:19:45;99994.00;;;7.00
25514;BMP180;48128;54.242;10.280;2024-03-02T02:22:12;99989.00;;;7.00
25514;BMP180;48128;54.242;10.280;2024-03-02T02:24:42;100002.00;;;7.00
25514;BMP180;48128;54.242;10.280;2024-03-02T02:27:09;99998.00;;;6.90
25514;BMP180;48128;54.242;10.280;2024-03-02T02:29:36;100001.00;;;6.90
25514;BMP180;48128;54.242;10.280;2024-03-02T02:32:03;100001.00;;;6.80
25514;BMP180;48128;54.242;10.280;2024-03-02T02:34:30;99997.00;;;6.80
25514;BMP180;48128;54.242;10.280;2024-03-02T02:36:58;99985.00;;;6.80
25514;BMP180;48128;54.242;10.280;2024-03-02T02:39:25;99981.00;;;6.80
25514;BMP180;48128;54.242;10.280;2024-03-02T02:41:52;99983.00;;;6.80
25514;BMP180;48128;54.242;10.280;2024-03-02T02:44:19;99991.00;;;6.80
25514;BMP180;48128;54.242;10.280;2024-03-02T02:46:46;99989.00;;;6.80
25514;BMP180;48128;54.242;10.280;2024-03-02T02:49:13;99990.00;;;6.80
25514;BMP180;48128;54.242;10.280;2024-03-02T02:51:39;99989.00;;;6.80
25514;BMP180;48128;54.242;10.280;2024-03-02T02:54:06;99992.00;;;6.80
25514;BMP180;48128;54.242;10.280;2024-03-02T02:56:33;99986.00;;;6.80
25514;BMP180;48128;54.242;10.280;2024-03-02T02:59:00;99989.00;;;6.70
25514;BMP180;48128;54.242;10.280;2024-03-02T03:01:27;99992.00;;;6.70
25514;BMP180;48128;54.242;10.280;2024-03-02T03:03:54;99994.00;;;6.70
25514;BMP180;48128;54.242;10.280;2024-03-02T03:06:21;99986.00;;;6.70
25514;BMP180;48128;54.242;10.280;2024-03-02T03:08:48;99990.00;;;6.70
25514;BMP180;48128;54.242;10.280;2024-03-02T03:11:15;99980.00;;;6.70
25514;BMP180;48128;54.242;10.280;2024-03-02T03:13:42;99983.00;;;6.70
25514;BMP180;48128;54.242;10.280;2024-03-02T03:16:10;99976.00;;;6.70
25514;BMP180;48128;54.242;10.280;2024-03-02T03:18:37;99978.00;;;6.60
25514;BMP180;48128;54.242;10.280;2024-03-02T03:21:05;99979.00;;;6.60
25514;BMP180;48128;54.242;10.280;2024-03-02T03:23:32;99974.00;;;6.60
25514;BMP180;48128;54.242;10.280;2024-03-02T03:25:59;99969.00;;;6.60
25514;BMP180;48128;54.242;10.280;2024-03-02T03:28:26;99971.00;;;6.60
25514;BMP180;48128;54.242;10.280;2024-03-02T03:30:52;99967.00;;;6.60
25514;BMP180;48128;54.242;10.280;2024-03-02T03:33:19;99962.00;;;6.50
25514;BMP180;48128;54.242;10.280;2024-03-02T03:35:46;99969.00;;;6.50
25514;BMP180;48128;54.242;10.280;2024-03-02T03:38:14;99979.00;;;6.40
25514;BMP180;48128;54.242;10.280;2024-03-02T03:40:41;99973.00;;;6.40
25514;BMP180;48128;54.242;10.280;2024-03-02T03:43:08;99975.00;;;6.40
25514;BMP180;48128;54.242;10.280;2024-03-02T03:45:35;99983.00;;;6.40
25514;BMP180;48128;54.242;10.280;2024-03-02T03:48:02;99976.00;;;6.30
25514;BMP180;48128;54.242;10.280;2024-03-02T03:50:31;99983.00;;;6.30
25514;BMP180;48128;54.242;10.280;2024-03-02T03:52:58;99968.00;;;6.30
25514;BMP180;48128;54.242;10.280;2024-03-02T03:55:25;99972.00;;;6.30
25514;BMP180;48128;54.242;10.280;2024-03-02T03:57:52;99988.00;;;6.30
25514;BMP180;48128;54.242;10.280;2024-03-02T04:00:19;99991.00;;;6.30
25514;BMP180;48128;54.242;10.280;2024-03-02T04:02:46;99984.00;;;6.30
25514;BMP180;48128;54.242;10.280;2024-03-02T04:05:13;99986.00;;;6.30
25514;BMP180;48128;54.242;10.280;2024-03-02T04:07:40;99992.00;;;6.30
25514;BMP180;48128;54.242;10.280;2024-03-02T04:10:08;99985.00;;;6.30
25514;BMP180;48128;54.242;10.280;2024-03-02T04:12:36;99982.00;;;6.30
25514;BMP180;48128;54.242;10.280;2024-03-02T04:15:06;99981.00;;;6.30
25514;BMP180;48128;54.242;10.280;2024-03-02T04:17:33;99986.00;;;6.30
25514;BMP180;48128;54.242;10.280;2024-03-02T04:20:01;99983.00;;;6.20
25514;BMP180;48128;54.242;10.280;2024-03-02T04:22:28;99988.00;;;6.20
25514;BMP180;48128;54.242;10.280;2024-03-02T04:24:55;99977.00;;;6.20
25514;BMP180;48128;54.242;10.280;2024-03-02T04:27:22;99975.00;;;6.20
25514;BMP180;48128;54.242;10.280;2024-03-02T04:29:49;99988.00;;;6.20
25514;BMP180;48128;54.242;10.280;2024-03-02T04:32:16;99991.00;;;6.20
25514;BMP180;48128;54.242;10.280;2024-03-02T04:34:44;99986.00;;;6.20
25514;BMP180;48128;54.242;10.280;2024-03-02T04:37:11;99990.00;;;6.20
25514;BMP180;48128;54.242;10.280;2024-03-02T04:39:39;99997.00;;;6.20
25514;BMP180;48128;54.242;10.280;2024-03-02T04:42:06;99990.00;;;6.20
25514;BMP180;48128;54.242;10.280;2024-03-02T04:44:33;99995.00;;;6.20
25514;BMP180;48128;54.242;10.280;2024-03-02T04:47:00;99995.00;;;6.20
25514;BMP180;48128;54.242;10.280;2024-03-02T04:49:27;99996.00;;;6.20
25514;BMP180;48128;54.242;10.280;2024-03-02T04:51:54;100000.00;;;6.20
25514;BMP180;48128;54.242;10.280;2024-03-02T04:54:22;99993.00;;;6.20
25514;BMP180;48128;54.242;10.280;2024-03-02T04:56:49;99986.00;;;6.20
25514;BMP180;48128;54.242;10.280;2024-03-02T04:59:18;99982.00;;;6.20
25514;BMP180;48128;54.242;10.280;2024-03-02T05:01:46;99989.00;;;6.20
25514;BMP180;48128;54.242;10.280;2024-03-02T05:04:14;99986.00;;;6.20
25514;BMP180;48128;54.242;10.280;2024-03-02T05:06:41;99973.00;;;6.20
25514;BMP180;48128;54.242;10.280;2024-03-02T05:09:08;99977.00;;;6.20
25514;BMP180;48128;54.242;10.280;2024-03-02T05:11:35;99976.00;;;6.10
25514;BMP180;48128;54.242;10.280;2024-03-02T05:14:05;99959.00;;;6.10
25514;BMP180;48128;54.242;10.280;2024-03-02T05:16:33;99971.00;;;6.20
25514;BMP180;48128;54.242;10.280;2024-03-02T05:19:01;99969.00;;;6.20
25514;BMP180;48128;54.242;10.280;2024-03-02T05:21:28;99968.00;;;6.20
25514;BMP180;48128;54.242;10.280;2024-03-02T05:23:54;99952.00;;;6.20
25514;BMP180;48128;54.242;10.280;2024-03-02T05:26:21;99947.00;;;6.20
25514;BMP180;48128;54.242;10.280;2024-03-02T05:28:48;99957.00;;;6.20
25514;BMP180;48128;54.242;10.280;2024-03-02T05:31:15;99954.00;;;6.20
25514;BMP180;48128;54.242;10.280;2024-03-02T05:33:43;99959.00;;;6.30
25514;BMP180;48128;54.242;10.280;2024-03-02T05:36:10;99963.00;;;6.30
25514;BMP180;48128;54.242;10.280;2024-03-02T05:38:37;99955.00;;;6.30
25514;BMP180;48128;54.242;10.280;2024-03-02T05:41:04;99962.00;;;6.30
25514;BMP180;48128;54.242;10.280;2024-03-02T05:43:31;99971.00;;;6.30
25514;BMP180;48128;54.242;10.280;2024-03-02T05:45:58;99964.00;;;6.30
25514;BMP180;48128;54.242;10.280;2024-03-02T05:48:25;99978.00;;;6.30
25514;BMP180;48128;54.242;10.280;2024-03-02T05:50:52;99986.00;;;6.30
25514;BMP180;48128;54.242;10.280;2024-03-02T05:53:19;99996.00;;;6.30
25514;BMP180;48128;54.242;10.280;2024-03-02T05:55:46;99993.00;;;6.30
25514;BMP180;48128;54.242;10.280;2024-03-02T05:58:14;99995.00;;;6.30
25514;BMP180;48128;54.242;10.280;2024-03-02T06:00:59;99998.00;;;6.40
25514;BMP180;48128;54.242;10.280;2024-03-02T06:03:26;99988.00;;;6.40
25514;BMP180;48128;54.242;10.280;2024-03-02T06:05:55;99993.00;;;6.40
25514;BMP180;48128;54.242;10.280;2024-03-02T06:08:22;99993.00;;;6.30
25514;BMP180;48128;54.242;10.280;2024-03-02T06:10:49;99995.00;;;6.30
25514;BMP180;48128;54.242;10.280;2024-03-02T06:13:16;100003.00;;;6.30
25514;BMP180;48128;54.242;10.280;2024-03-02T06:15:43;99998.00;;;6.30
25514;BMP180;48128;54.242;10.280;2024-03-02T06:18:10;99992.00;;;6.30
25514;BMP180;48128;54.242;10.280;2024-03-02T06:20:37;99996.00;;;6.30
25514;BMP180;48128;54.242;10.280;2024-03-02T06:23:04;99998.00;;;6.30
25514;BMP180;48128;54.242;10.280;2024-03-02T06:25:31;99999.00;;;6.30
25514;BMP180;48128;54.242;10.280;2024-03-02T06:27:58;99996.00;;;6.30
25514;BMP180;48128;54.242;10.280;2024-03-02T06:30:25;99995.00;;;6.30
25514;BMP180;48128;54.242;10.280;2024-03-02T06:32:52;99995.00;;;6.30
25514;BMP180;48128;54.242;10.280;2024-03-02T06:35:20;100004.00;;;6.30
25514;BMP180;48128;54.242;10.280;2024-03-02T06:37:46;100002.00;;;6.30
25514;BMP180;48128;54.242;10.280;2024-03-02T06:40:13;100006.00;;;6.30
25514;BMP180;48128;54.242;10.280;2024-03-02T06:42:40;100000.00;;;6.40
25514;BMP180;48128;54.242;10.280;2024-03-02T06:45:07;100000.00;;;6.40
25514;BMP180;48128;54.242;10.280;2024-03-02T06:47:34;100007.00;;;6.40
25514;BMP180;48128;54.242;10.280;2024-03-02T06:50:01;99999.00;;;6.40
25514;BMP180;48128;54.242;10.280;2024-03-02T06:52:28;99999.00;;;6.40
25514;BMP180;48128;54.242;10.280;2024-03-02T06:54:55;100001.00;;;6.40
25514;BMP180;48128;54.242;10.280;2024-03-02T06:57:22;99989.00;;;6.40
25514;BMP180;48128;54.242;10.280;2024-03-02T06:59:51;100002.00;;;6.50
25514;BMP180;48128;54.242;10.280;2024-03-02T07:02:20;99994.00;;;6.50
25514;BMP180;48128;54.242;10.280;2024-03-02T07:04:47;99994.00;;;6.50
25514;BMP180;48128;54.242;10.280;2024-03-02T07:07:15;99984.00;;;6.50
25514;BMP180;48128;54.242;10.280;2024-03-02T07:09:43;99982.00;;;6.50
25514;BMP180;48128;54.242;10.280;2024-03-02T07:12:10;99980.00;;;6.60
25514;BMP180;48128;54.242;10.280;2024-03-02T07:14:37;99986.00;;;6.60
25514;BMP180;48128;54.242;10.280;2024-03-02T07:17:37;100009.00;;;6.70
25514;BMP180;48128;54.242;10.280;2024-03-02T07:20:05;99989.00;;;6.80
25514;BMP180;48128;54.242;10.280;2024-03-02T07:22:33;100001.00;;;6.80
25514;BMP180;48128;54.242;10.280;2024-03-02T07:25:00;100008.00;;;6.90
25514;BMP180;48128;54.242;10.280;2024-03-02T07:27:27;100014.00;;;6.90
25514;BMP180;48128;54.242;10.280;2024-03-02T07:29:54;100009.00;;;7.00
25514;BMP180;48128;54.242;10.280;2024-03-02T07:32:21;100007.00;;;7.00
25514;BMP180;48128;54.242;10.280;2024-03-02T07:34:47;100009.00;;;7.10
25514;BMP180;48128;54.242;10.280;2024-03-02T07:37:15;100014.00;;;7.10
25514;BMP180;48128;54.242;10.280;2024-03-02T07:39:41;100026.00;;;7.20
25514;BMP180;48128;54.242;10.280;2024-03-02T07:42:08;100032.00;;;7.20
25514;BMP180;48128;54.242;10.280;2024-03-02T07:44:35;100046.00;;;7.20
25514;BMP180;48128;54.242;10.280;2024-03-02T07:47:04;100043.00;;;7.30
25514;BMP180;48128;54.242;10.280;2024-03-02T07:49:31;100047.00;;;7.30
25514;BMP180;48128;54.242;10.280;2024-03-02T07:51:57;100038.00;;;7.40
25514;BMP180;48128;54.242;10.280;2024-03-02T07:54:25;100042.00;;;7.50
25514;BMP180;48128;54.242;10.280;2024-03-02T07:56:52;100049.00;;;7.50
25514;BMP180;48128;54.242;10.280;2024-03-02T07:59:19;100043.00;;;7.60
25514;BMP180;48128;54.242;10.280;2024-03-02T08:01:49;100052.00;;;7.70
25514;BMP180;48128;54.242;10.280;2024-03-02T08:04:16;100052.00;;;7.80
25514;BMP180;48128;54.242;10.280;2024-03-02T08:06:45;100044.00;;;7.90
25514;BMP180;48128;54.242;10.280;2024-03-02T08:09:11;100054.00;;;7.90
25514;BMP180;48128;54.242;10.280;2024-03-02T08:11:38;100043.00;;;8.00
25514;BMP180;48128;54.242;10.280;2024-03-02T08:14:06;100059.00;;;8.00
25514;BMP180;48128;54.242;10.280;2024-03-02T08:16:33;100059.00;;;8.10
25514;BMP180;48128;54.242;10.280;2024-03-02T08:19:00;100064.00;;;8.20
25514;BMP180;48128;54.242;10.280;2024-03-02T08:21:27;100044.00;;;8.20
25514;BMP180;48128;54.242;10.280;2024-03-02T08:23:57;100052.00;;;8.20
25514;BMP180;48128;54.242;10.280;2024-03-02T08:26:25;100052.00;;;8.30
25514;BMP180;48128;54.242;10.280;2024-03-02T08:28:52;100052.00;;;8.40
25514;BMP180;48128;54.242;10.280;2024-03-02T08:31:19;100059.00;;;8.40
25514;BMP180;48128;54.242;10.280;2024-03-02T08:33:49;100057.00;;;8.40
25514;BMP180;48128;54.242;10.280;2024-03-02T08:36:16;100075.00;;;8.40
25514;BMP180;48128;54.242;10.280;2024-03-02T08:38:43;100107.00;;;8.40
25514;BMP180;48128;54.242;10.280;2024-03-02T08:41:11;100114.00;;;8.40
25514;BMP180;48128;54.242;10.280;2024-03-02T08:43:40;100124.00;;;8.40
25514;BMP180;48128;54.242;10.280;2024-03-02T08:46:09;100122.00;;;8.40
25514;BMP180;48128;54.242;10.280;2024-03-02T08:48:36;100115.00;;;8.40
25514;BMP180;48128;54.242;10.280;2024-03-02T08:51:03;100117.00;;;8.50
25514;BMP180;48128;54.242;10.280;2024-03-02T08:53:33;100106.00;;;8.50
25514;BMP180;48128;54.242;10.280;2024-03-02T08:56:03;100123.00;;;8.60
25514;BMP180;48128;54.242;10.280;2024-03-02T08:58:32;100120.00;;;8.70
25514;BMP180;48128;54.242;10.280;2024-03-02T09:00:59;100123.00;;;8.90
25514;BMP180;48128;54.242;10.280;2024-03-02T09:03:26;100127.00;;;9.00
25514;BMP180;48128;54.242;10.280;2024-03-02T09:05:53;100140.00;;;9.10
25514;BMP180;48128;54.242;10.280;2024-03-02T09:08:20;100142.00;;;9.20
25514;BMP180;48128;54.242;10.280;2024-03-02T09:10:47;100147.00;;;9.30
25514;BMP180;48128;54.242;10.280;2024-03-02T09:13:14;100148.00;;;9.40
25514;BMP180;48128;54.242;10.280;2024-03-02T09:15:41;100152.00;;;9.50
25514;BMP180;48128;54.242;10.280;2024-03-02T09:18:09;100185.00;;;9.60
25514;BMP180;48128;54.242;10.280;2024-03-02T09:20:36;100163.00;;;9.70
25514;BMP180;48128;54.242;10.280;2024-03-02T09:23:03;100170.00;;;9.70
25514;BMP180;48128;54.242;10.280;2024-03-02T09:25:30;100180.00;;;9.80
25514;BMP180;48128;54.242;10.280;2024-03-02T09:27:57;100189.00;;;9.90
25514;BMP180;48128;54.242;10.280;2024-03-02T09:30:24;100191.00;;;9.90
25514;BMP180;48128;54.242;10.280;2024-03-02T09:32:51;100192.00;;;10.00
25514;BMP180;48128;54.242;10.280;2024-03-02T09:35:18;100182.00;;;10.10
25514;BMP180;48128;54.242;10.280;2024-03-02T09:37:45;100194.00;;;10.20
25514;BMP180;48128;54.242;10.280;2024-03-02T09:40:13;100198.00;;;10.30
25514;BMP180;48128;54.242;10.280;2024-03-02T09:42:40;100205.00;;;10.40
25514;BMP180;48128;54.242;10.280;2024-03-02T09:45:08;100208.00;;;10.50
25514;BMP180;48128;54.242;10.280;2024-03-02T09:47:35;100198.00;;;10.70
25514;BMP180;48128;54.242;10.280;2024-03-02T09:50:02;100202.00;;;10.90
25514;BMP180;48128;54.242;10.280;2024-03-02T09:52:30;100225.00;;;11.00
25514;BMP180;48128;54.242;10.280;2024-03-02T09:54:57;100209.00;;;11.20
25514;BMP180;48128;54.242;10.280;2024-03-02T09:57:24;100225.00;;;11.40
25514;BMP180;48128;54.242;10.280;2024-03-02T09:59:52;100223.00;;;11.50
25514;BMP180;48128;54.242;10.280;2024-03-02T10:02:19;100236.00;;;11.60
25514;BMP180;48128;54.242;10.280;2024-03-02T10:04:45;100231.00;;;11.70
25514;BMP180;48128;54.242;10.280;2024-03-02T10:07:17;100231.00;;;11.70
25514;BMP180;48128;54.242;10.280;2024-03-02T10:09:46;100216.00;;;11.70
25514;BMP180;48128;54.242;10.280;2024-03-02T10:12:15;100243.00;;;11.80
25514;BMP180;48128;54.242;10.280;2024-03-02T10:14:43;100228.00;;;11.70
25514;BMP180;48128;54.242;10.280;2024-03-02T10:17:14;100242.00;;;11.70
25514;BMP180;48128;54.242;10.280;2024-03-02T10:19:42;100234.00;;;11.70
25514;BMP180;48128;54.242;10.280;2024-03-02T10:22:09;100234.00;;;11.70
25514;BMP180;48128;54.242;10.280;2024-03-02T10:24:38;100228.00;;;11.70
25514;BMP180;48128;54.242;10.280;2024-03-02T10:27:07;100230.00;;;11.80
25514;BMP180;48128;54.242;10.280;2024-03-02T10:29:42;100238.00;;;11.80
25514;BMP180;48128;54.242;10.280;2024-03-02T10:32:11;100225.00;;;11.80
25514;BMP180;48128;54.242;10.280;2024-03-02T10:34:42;100224.00;;;11.80
25514;BMP180;48128;54.242;10.280;2024-03-02T10:37:10;100240.00;;;11.70
25514;BMP180;48128;54.242;10.280;2024-03-02T10:39:38;100225.00;;;11.80
25514;BMP180;48128;54.242;10.280;2024-03-02T10:42:11;100220.00;;;11.80
25514;BMP180;48128;54.242;10.280;2024-03-02T10:44:38;100221.00;;;11.80
25514;BMP180;48128;54.242;10.280;2024-03-02T10:47:05;100213.00;;;11.90
25514;BMP180;48128;54.242;10.280;2024-03-02T10:49:32;100239.00;;;12.00
25514;BMP180;48128;54.242;10.280;2024-03-02T10:52:00;100237.00;;;12.00
25514;BMP180;48128;54.242;10.280;2024-03-02T10:54:28;100238.00;;;12.10
25514;BMP180;48128;54.242;10.280;2024-03-02T10:57:03;100269.00;;;12.20
25514;BMP180;48128;54.242;10.280;2024-03-02T10:59:35;100248.00;;;12.30
25514;BMP180;48128;54.242;10.280;2024-03-02T11:02:03;100240.00;;;12.50
25514;BMP180;48128;54.242;10.280;2024-03-02T11:04:32;100259.00;;;12.70
25514;BMP180;48128;54.242;10.280;2024-03-02T11:07:05;100264.00;;;12.70
25514;BMP180;48128;54.242;10.280;2024-03-02T11:09:34;100267.00;;;12.80
25514;BMP180;48128;54.242;10.280;2024-03-02T11:12:12;100252.00;;;12.90
25514;BMP180;48128;54.242;10.280;2024-03-02T11:14:41;100264.00;;;12.90
25514;BMP180;48128;54.242;10.280;2024-03-02T11:17:14;100277.00;;;12.90
25514;BMP180;48128;54.242;10.280;2024-03-02T11:19:44;100255.00;;;13.00
25514;BMP180;48128;54.242;10.280;2024-03-02T11:22:12;100266.00;;;13.00
25514;BMP180;48128;54.242;10.280;2024-03-02T11:24:48;100269.00;;;13.00
25514;BMP180;48128;54.242;10.280;2024-03-02T11:30:06;100271.00;;;13.20
25514;BMP180;48128;54.242;10.280;2024-03-02T11:32:34;100279.00;;;13.30
25514;BMP180;48128;54.242;10.280;2024-03-02T11:35:01;100287.00;;;13.40
25514;BMP180;48128;54.242;10.280;2024-03-02T11:37:28;100279.00;;;13.40
25514;BMP180;48128;54.242;10.280;2024-03-02T11:39:55;100288.00;;;13.40
25514;BMP180;48128;54.242;10.280;2024-03-02T11:42:22;100278.00;;;13.50
25514;BMP180;48128;54.242;10.280;2024-03-02T11:44:49;100293.00;;;13.70
25514;BMP180;48128;54.242;10.280;2024-03-02T11:47:17;100297.00;;;13.80
25514;BMP180;48128;54.242;10.280;2024-03-02T11:49:46;100303.00;;;14.00
25514;BMP180;48128;54.242;10.280;2024-03-02T11:52:15;100299.00;;;14.10
25514;BMP180;48128;54.242;10.280;2024-03-02T11:54:45;100284.00;;;14.30
25514;BMP180;48128;54.242;10.280;2024-03-02T11:57:17;100308.00;;;14.30
25514;BMP180;48128;54.242;10.280;2024-03-02T11:59:45;100279.00;;;14.40
25514;BMP180;48128;54.242;10.280;2024-03-02T12:02:16;100298.00;;;14.40
25514;BMP180;48128;54.242;10.280;2024-03-02T12:04:44;100318.00;;;14.50
25514;BMP180;48128;54.242;10.280;2024-03-02T12:07:12;100304.00;;;14.50
25514;BMP180;48128;54.242;10.280;2024-03-02T12:09:39;100298.00;;;14.60
25514;BMP180;48128;54.242;10.280;2024-03-02T12:12:09;100292.00;;;14.60
25514;BMP180;48128;54.242;10.280;2024-03-02T12:14:38;100311.00;;;14.70
25514;BMP180;48128;54.242;10.280;2024-03-02T12:17:05;100294.00;;;14.70
25514;BMP180;48128;54.242;10.280;2024-03-02T12:19:32;100291.00;;;14.70
25514;BMP180;48128;54.242;10.280;2024-03-02T12:22:00;100284.00;;;14.70
25514;BMP180;48128;54.242;10.280;2024-03-02T12:24:28;100293.00;;;14.70
25514;BMP180;48128;54.242;10.280;2024-03-02T12:26:55;100287.00;;;14.70
25514;BMP180;48128;54.242;10.280;2024-03-02T12:29:22;100292.00;;;14.70
25514;BMP180;48128;54.242;10.280;2024-03-02T12:31:51;100310.00;;;14.70
25514;BMP180;48128;54.242;10.280;2024-03-02T12:34:22;100299.00;;;14.50
25514;BMP180;48128;54.242;10.280;2024-03-02T12:36:50;100277.00;;;14.40
25514;BMP180;48128;54.242;10.280;2024-03-02T12:39:19;100289.00;;;14.30
25514;BMP180;48128;54.242;10.280;2024-03-02T12:41:47;100284.00;;;14.20
25514;BMP180;48128;54.242;10.280;2024-03-02T12:44:14;100291.00;;;14.10
25514;BMP180;48128;54.242;10.280;2024-03-02T12:46:40;100296.00;;;14.00
25514;BMP180;48128;54.242;10.280;2024-03-02T12:49:09;100275.00;;;13.90
25514;BMP180;48128;54.242;10.280;2024-03-02T12:51:38;100278.00;;;13.70
25514;BMP180;48128;54.242;10.280;2024-03-02T12:54:08;100252.00;;;13.70
25514;BMP180;48128;54.242;10.280;2024-03-02T12:56:36;100235.00;;;13.60
25514;BMP180;48128;54.242;10.280;2024-03-02T12:59:05;100250.00;;;13.50
25514;BMP180;48128;54.242;10.280;2024-03-02T13:01:32;100241.00;;;13.40
25514;BMP180;48128;54.242;10.280;2024-03-02T13:03:59;100258.00;;;13.30
25514;BMP180;48128;54.242;10.280;2024-03-02T13:06:26;100249.00;;;13.20
25514;BMP180;48128;54.242;10.280;2024-03-02T13:08:56;100248.00;;;13.10
25514;BMP180;48128;54.242;10.280;2024-03-02T13:11:23;100219.00;;;13.10
25514;BMP180;48128;54.242;10.280;2024-03-02T13:13:51;100254.00;;;13.10
25514;BMP180;48128;54.242;10.280;2024-03-02T13:16:18;100238.00;;;13.00
25514;BMP180;48128;54.242;10.280;2024-03-02T13:18:55;100236.00;;;13.00
25514;BMP180;48128;54.242;10.280;2024-03-02T13:21:22;100220.00;;;13.00
25514;BMP180;48128;54.242;10.280;2024-03-02T13:23:49;100227.00;;;13.00
25514;BMP180;48128;54.242;10.280;2024-03-02T13:26:16;100219.00;;;13.00
25514;BMP180;48128;54.242;10.280;2024-03-02T13:28:43;100219.00;;;12.90
25514;BMP180;48128;54.242;10.280;2024-03-02T13:31:10;100213.00;;;13.00
25514;BMP180;48128;54.242;10.280;2024-03-02T13:33:37;100223.00;;;12.90
25514;BMP180;48128;54.242;10.280;2024-03-02T13:36:04;100212.00;;;12.90
25514;BMP180;48128;54.242;10.280;2024-03-02T13:38:31;100225.00;;;12.90
25514;BMP180;48128;54.242;10.280;2024-03-02T13:40:58;100211.00;;;12.90
25514;BMP180;48128;54.242;10.280;2024-03-02T13:43:27;100224.00;;;12.90
25514;BMP180;48128;54.242;10.280;2024-03-02T13:45:54;100229.00;;;12.90
25514;BMP180;48128;54.242;10.280;2024-03-02T13:48:21;100224.00;;;12.90
25514;BMP180;48128;54.242;10.280;2024-03-02T13:50:49;100222.00;;;12.90
25514;BMP180;48128;54.242;10.280;2024-03-02T13:53:15;100207.00;;;12.90
25514;BMP180;48128;54.242;10.280;2024-03-02T13:55:43;100224.00;;;12.90
25514;BMP180;48128;54.242;10.280;2024-03-02T13:58:10;100220.00;;;12.90
25514;BMP180;48128;54.242;10.280;2024-03-02T14:00:37;100217.00;;;12.80
25514;BMP180;48128;54.242;10.280;2024-03-02T14:03:08;100215.00;;;12.80
25514;BMP180;48128;54.242;10.280;2024-03-02T14:05:35;100218.00;;;12.80
25514;BMP180;48128;54.242;10.280;2024-03-02T14:08:04;100202.00;;;12.80